sensor_id;sensor_type;location;lat;lon;timestamp;temperature;humidity
3356;DHT22;1691;52.486;13.374;2024-03-17T00:02:20;5.50;83.20
3356;DHT22;1691;52.486;13.374;2024-03-17T00:04:46;5.50;83.40
3356;DHT22;1691;52.486;13.374;2024-03-17T00:07:13;5.50;83.20
3356;DHT22;1691;52.486;13.374;2024-03-17T00:09:40;5.50;83.60
3356;DHT22;1691;52.486;13.374;2024-03-17T00:12:07;5.50;83.80
3356;DHT22;1691;52.486;13.374;2024-03-17T00:14:34;5.50;83.60
3356;DHT22;1691;52.486;13.374;2024-03-17T00:17:01;5.40;83.60
3356;DHT22;1691;52.486;13.374;2024-03-17T00:19:27;5.40;83.90
3356;DHT22;1691;52.486;13.374;2024-03-17T00:21:53;5.30;84.10
3356;DHT22;1691;52.486;13.374;2024-03-17T00:24:20;5.30;84.30
3356;DHT22;1691;52.486;13.374;2024-03-17T00:26:47;5.30;84.30
3356;DHT22;1691;52.486;13.374;2024-03-17T00:29:14;5.30;84.30
3356;DHT22;1691;52.486;13.374;2024-03-17T00:31:41;5.30;84.50
3356;DHT22;1691;52.486;13.374;2024-03-17T00:34:08;5.20;84.50
3356;DHT22;1691;52.486;13.374;2024-03-17T00:36:35;5.20;84.70
3356;DHT22;1691;52.486;13.374;2024-03-17T00:39:02;5.20;84.90
3356;DHT22;1691;52.486;13.374;2024-03-17T00:41:29;5.20;84.90
3356;DHT22;1691;52.486;13.374;2024-03-17T00:43:55;5.10;85.10
3356;DHT22;1691;52.486;13.374;2024-03-17T00:46:21;5.10;85.20
3356;DHT22;1691;52.486;13.374;2024-03-17T00:48:48;5.10;85.20
3356;DHT22;1691;52.486;13.374;2024-03-17T00:51:15;5.10;85.40
3356;DHT22;1691;52.486;13.374;2024-03-17T00:53:41;5.10;85.60
3356;DHT22;1691;52.486;13.374;2024-03-17T00:56:08;5.10;85.60
3356;DHT22;1691;52.486;13.374;2024-03-17T00:58:34;5.10;85.60
3356;DHT22;1691;52.486;13.374;2024-03-17T01:01:00;5.10;85.60
3356;DHT22;1691;52.486;13.374;2024-03-17T01:03:27;5.10;85.80
3356;DHT22;1691;52.486;13.374;2024-03-17T01:05:53;5.10;85.80
3356;DHT22;1691;52.486;13.374;2024-03-17T01:08:20;5.10;85.80
3356;DHT22;1691;52.486;13.374;2024-03-17T01:10:47;5.00;86.00
3356;DHT22;1691;52.486;13.374;2024-03-17T01:13:17;5.00;86.00
3356;DHT22;1691;52.486;13.374;2024-03-17T01:15:44;5.00;86.20
3356;DHT22;1691;52.486;13.374;2024-03-17T01:18:10;5.00;86.20
3356;DHT22;1691;52.486;13.374;2024-03-17T01:20:37;5.00;86.50
3356;DHT22;1691;52.486;13.374;2024-03-17T01:23:04;5.00;86.40
3356;DHT22;1691;52.486;13.374;2024-03-17T01:25:33;5.00;86.40
3356;DHT22;1691;52.486;13.374;2024-03-17T01:28:06;5.00;86.50
3356;DHT22;1691;52.486;13.374;2024-03-17T01:30:32;5.00;86.70
3356;DHT22;1691;52.486;13.374;2024-03-17T01:33:00;5.00;86.90
3356;DHT22;1691;52.486;13.374;2024-03-17T01:35:26;4.90;86.90
3356;DHT22;1691;52.486;13.374;2024-03-17T01:37:53;4.90;87.10
3356;DHT22;1691;52.486;13.374;2024-03-17T01:40:19;4.90;87.30
3356;DHT22;1691;52.486;13.374;2024-03-17T01:42:46;4.90;87.50
3356;DHT22;1691;52.486;13.374;2024-03-17T01:45:30;4.90;87.30
3356;DHT22;1691;52.486;13.374;2024-03-17T01:47:59;4.80;87.30
3356;DHT22;1691;52.486;13.374;2024-03-17T01:50:35;4.80;87.50
3356;DHT22;1691;52.486;13.374;2024-03-17T01:53:03;4.70;87.50
3356;DHT22;1691;52.486;13.374;2024-03-17T01:55:33;4.70;87.70
3356;DHT22;1691;52.486;13.374;2024-03-17T01:58:03;4.70;87.70
3356;DHT22;1691;52.486;13.374;2024-03-17T02:00:33;4.70;87.70
3356;DHT22;1691;52.486;13.374;2024-03-17T02:03:12;4.60;88.00
3356;DHT22;1691;52.486;13.374;2024-03-17T02:05:41;4.60;88.00
3356;DHT22;1691;52.486;13.374;2024-03-17T02:08:07;4.50;88.20
3356;DHT22;1691;52.486;13.374;2024-03-17T02:10:39;4.50;88.20
3356;DHT22;1691;52.486;13.374;2024-03-17T02:13:06;4.50;88.40
3356;DHT22;1691;52.486;13.374;2024-03-17T02:15:33;4.40;88.40
3356;DHT22;1691;52.486;13.374;2024-03-17T02:17:59;4.40;88.60
3356;DHT22;1691;52.486;13.374;2024-03-17T02:20:25;4.40;88.60
3356;DHT22;1691;52.486;13.374;2024-03-17T02:23:10;4.30;89.00
3356;DHT22;1691;52.486;13.374;2024-03-17T02:25:37;4.30;89.00
3356;DHT22;1691;52.486;13.374;2024-03-17T02:28:03;4.20;89.00
3356;DHT22;1691;52.486;13.374;2024-03-17T02:30:30;4.20;89.20
3356;DHT22;1691;52.486;13.374;2024-03-17T02:32:56;4.20;89.30
3356;DHT22;1691;52.486;13.374;2024-03-17T02:35:24;4.20;89.50
3356;DHT22;1691;52.486;13.374;2024-03-17T02:37:50;4.10;89.50
3356;DHT22;1691;52.486;13.374;2024-03-17T02:40:16;4.10;89.70
3356;DHT22;1691;52.486;13.374;2024-03-17T02:42:43;4.10;89.90
3356;DHT22;1691;52.486;13.374;2024-03-17T02:45:11;4.10;89.70
3356;DHT22;1691;52.486;13.374;2024-03-17T02:47:38;4.10;89.70
3356;DHT22;1691;52.486;13.374;2024-03-17T02:50:06;4.10;89.90
3356;DHT22;1691;52.486;13.374;2024-03-17T02:52:33;4.00;90.10
3356;DHT22;1691;52.486;13.374;2024-03-17T02:54:59;4.00;90.10
3356;DHT22;1691;52.486;13.374;2024-03-17T02:57:26;4.00;90.10
3356;DHT22;1691;52.486;13.374;2024-03-17T02:59:55;3.90;90.10
3356;DHT22;1691;52.486;13.374;2024-03-17T03:02:22;3.90;90.20
3356;DHT22;1691;52.486;13.374;2024-03-17T03:04:49;3.90;90.30
3356;DHT22;1691;52.486;13.374;2024-03-17T03:07:15;3.90;90.40
3356;DHT22;1691;52.486;13.374;2024-03-17T03:09:42;3.90;90.40
3356;DHT22;1691;52.486;13.374;2024-03-17T03:12:08;3.90;90.50
3356;DHT22;1691;52.486;13.374;2024-03-17T03:14:34;3.90;90.50
3356;DHT22;1691;52.486;13.374;2024-03-17T03:17:00;3.90;90.60
3356;DHT22;1691;52.486;13.374;2024-03-17T03:19:27;3.80;90.50
3356;DHT22;1691;52.486;13.374;2024-03-17T03:21:53;3.80;90.60
3356;DHT22;1691;52.486;13.374;2024-03-17T03:24:19;3.80;90.70
3356;DHT22;1691;52.486;13.374;2024-03-17T03:26:45;3.80;90.70
3356;DHT22;1691;52.486;13.374;2024-03-17T03:29:11;3.80;90.70
3356;DHT22;1691;52.486;13.374;2024-03-17T03:31:40;3.70;90.80
3356;DHT22;1691;52.486;13.374;2024-03-17T03:34:07;3.70;90.80
3356;DHT22;1691;52.486;13.374;2024-03-17T03:36:34;3.70;90.90
3356;DHT22;1691;52.486;13.374;2024-03-17T03:39:04;3.60;91.10
3356;DHT22;1691;52.486;13.374;2024-03-17T03:41:31;3.60;91.20
3356;DHT22;1691;52.486;13.374;2024-03-17T03:44:00;3.60;91.20
3356;DHT22;1691;52.486;13.374;2024-03-17T03:46:26;3.60;91.20
3356;DHT22;1691;52.486;13.374;2024-03-17T03:48:53;3.60;91.30
3356;DHT22;1691;52.486;13.374;2024-03-17T03:51:19;3.60;91.40
3356;DHT22;1691;52.486;13.374;2024-03-17T03:53:45;3.60;91.40
3356;DHT22;1691;52.486;13.374;2024-03-17T03:56:11;3.60;91.40
3356;DHT22;1691;52.486;13.374;2024-03-17T03:58:38;3.60;91.50
3356;DHT22;1691;52.486;13.374;2024-03-17T04:01:07;3.60;91.70
3356;DHT22;1691;52.486;13.374;2024-03-17T04:03:34;3.60;91.70
3356;DHT22;1691;52.486;13.374;2024-03-17T04:06:08;3.60;91.70
3356;DHT22;1691;52.486;13.374;2024-03-17T04:08:37;3.50;91.80
3356;DHT22;1691;52.486;13.374;2024-03-17T04:11:06;3.50;91.80
3356;DHT22;1691;52.486;13.374;2024-03-17T04:13:33;3.50;91.90
3356;DHT22;1691;52.486;13.374;2024-03-17T04:16:00;3.50;92.10
3356;DHT22;1691;52.486;13.374;2024-03-17T04:18:27;3.50;92.20
3356;DHT22;1691;52.486;13.374;2024-03-17T04:20:57;3.50;92.10
3356;DHT22;1691;52.486;13.374;2024-03-17T04:23:24;3.50;92.20
3356;DHT22;1691;52.486;13.374;2024-03-17T04:25:51;3.50;92.20
3356;DHT22;1691;52.486;13.374;2024-03-17T04:28:18;3.40;92.40
3356;DHT22;1691;52.486;13.374;2024-03-17T04:30:44;3.40;92.40
3356;DHT22;1691;52.486;13.374;2024-03-17T04:33:12;3.40;92.40
3356;DHT22;1691;52.486;13.374;2024-03-17T04:35:39;3.40;92.40
3356;DHT22;1691;52.486;13.374;2024-03-17T04:38:07;3.40;92.50
3356;DHT22;1691;52.486;13.374;2024-03-17T04:40:39;3.30;92.60
3356;DHT22;1691;52.486;13.374;2024-03-17T04:43:07;3.30;92.70
3356;DHT22;1691;52.486;13.374;2024-03-17T04:45:33;3.30;92.70
3356;DHT22;1691;52.486;13.374;2024-03-17T04:47:59;3.30;92.70
3356;DHT22;1691;52.486;13.374;2024-03-17T04:50:26;3.30;92.90
3356;DHT22;1691;52.486;13.374;2024-03-17T04:53:00;3.30;92.90
3356;DHT22;1691;52.486;13.374;2024-03-17T04:55:26;3.20;93.00
3356;DHT22;1691;52.486;13.374;2024-03-17T04:57:53;3.20;93.10
3356;DHT22;1691;52.486;13.374;2024-03-17T05:00:19;3.20;93.20
3356;DHT22;1691;52.486;13.374;2024-03-17T05:02:47;3.20;93.30
3356;DHT22;1691;52.486;13.374;2024-03-17T05:05:13;3.20;93.40
3356;DHT22;1691;52.486;13.374;2024-03-17T05:07:39;3.20;93.40
3356;DHT22;1691;52.486;13.374;2024-03-17T05:10:05;3.20;93.50
3356;DHT22;1691;52.486;13.374;2024-03-17T05:12:32;3.30;93.60
3356;DHT22;1691;52.486;13.374;2024-03-17T05:14:58;3.30;93.70
3356;DHT22;1691;52.486;13.374;2024-03-17T05:17:24;3.30;93.60
3356;DHT22;1691;52.486;13.374;2024-03-17T05:19:50;3.40;93.60
3356;DHT22;1691;52.486;13.374;2024-03-17T05:22:17;3.40;93.60
3356;DHT22;1691;52.486;13.374;2024-03-17T05:24:43;3.40;93.70
3356;DHT22;1691;52.486;13.374;2024-03-17T05:27:09;3.40;93.70
3356;DHT22;1691;52.486;13.374;2024-03-17T05:29:35;3.40;93.70
3356;DHT22;1691;52.486;13.374;2024-03-17T05:32:04;3.40;93.70
3356;DHT22;1691;52.486;13.374;2024-03-17T05:34:31;3.50;93.70
3356;DHT22;1691;52.486;13.374;2024-03-17T05:36:57;3.50;93.70
3356;DHT22;1691;52.486;13.374;2024-03-17T05:39:24;3.50;93.80
3356;DHT22;1691;52.486;13.374;2024-03-17T05:41:50;3.60;93.80
3356;DHT22;1691;52.486;13.374;2024-03-17T05:44:17;3.70;93.80
3356;DHT22;1691;52.486;13.374;2024-03-17T05:46:43;3.80;94.00
3356;DHT22;1691;52.486;13.374;2024-03-17T05:49:09;4.10;94.20
3356;DHT22;1691;52.486;13.374;2024-03-17T05:51:36;4.50;94.30
3356;DHT22;1691;52.486;13.374;2024-03-17T05:54:02;4.90;94.20
3356;DHT22;1691;52.486;13.374;2024-03-17T05:56:28;5.40;94.00
3356;DHT22;1691;52.486;13.374;2024-03-17T05:58:54;5.90;93.60
3356;DHT22;1691;52.486;13.374;2024-03-17T06:01:21;6.50;93.30
3356;DHT22;1691;52.486;13.374;2024-03-17T06:03:48;7.00;92.70
3356;DHT22;1691;52.486;13.374;2024-03-17T06:06:14;7.40;92.00
3356;DHT22;1691;52.486;13.374;2024-03-17T06:08:40;7.90;91.40
3356;DHT22;1691;52.486;13.374;2024-03-17T06:11:06;8.30;90.80
3356;DHT22;1691;52.486;13.374;2024-03-17T06:13:34;8.80;90.20
3356;DHT22;1691;52.486;13.374;2024-03-17T06:16:03;9.30;89.20
3356;DHT22;1691;52.486;13.374;2024-03-17T06:18:30;9.80;87.10
3356;DHT22;1691;52.486;13.374;2024-03-17T06:20:57;10.20;85.60
3356;DHT22;1691;52.486;13.374;2024-03-17T06:23:24;10.60;83.90
3356;DHT22;1691;52.486;13.374;2024-03-17T06:25:53;10.90;82.40
3356;DHT22;1691;52.486;13.374;2024-03-17T06:28:22;11.30;80.60
3356;DHT22;1691;52.486;13.374;2024-03-17T06:30:56;11.70;79.10
3356;DHT22;1691;52.486;13.374;2024-03-17T06:33:29;12.10;77.40
3356;DHT22;1691;52.486;13.374;2024-03-17T06:35:57;12.40;75.90
3356;DHT22;1691;52.486;13.374;2024-03-17T06:38:24;12.80;74.10
3356;DHT22;1691;52.486;13.374;2024-03-17T06:40:53;13.20;72.60
3356;DHT22;1691;52.486;13.374;2024-03-17T06:43:19;13.60;70.70
3356;DHT22;1691;52.486;13.374;2024-03-17T06:46:00;13.90;69.20
3356;DHT22;1691;52.486;13.374;2024-03-17T06:48:27;14.30;67.40
3356;DHT22;1691;52.486;13.374;2024-03-17T06:50:54;14.70;66.10
3356;DHT22;1691;52.486;13.374;2024-03-17T06:53:21;15.00;64.60
3356;DHT22;1691;52.486;13.374;2024-03-17T06:55:58;15.30;63.10
3356;DHT22;1691;52.486;13.374;2024-03-17T06:58:26;15.60;61.20
3356;DHT22;1691;52.486;13.374;2024-03-17T07:00:57;15.30;60.10
3356;DHT22;1691;52.486;13.374;2024-03-17T07:03:26;14.90;59.90
3356;DHT22;1691;52.486;13.374;2024-03-17T07:05:56;14.60;60.10
3356;DHT22;1691;52.486;13.374;2024-03-17T07:08:25;14.60;59.80
3356;DHT22;1691;52.486;13.374;2024-03-17T07:11:02;14.60;59.80
3356;DHT22;1691;52.486;13.374;2024-03-17T07:13:32;15.00;58.90
3356;DHT22;1691;52.486;13.374;2024-03-17T07:16:03;15.20;57.80
3356;DHT22;1691;52.486;13.374;2024-03-17T07:18:33;15.10;57.20
3356;DHT22;1691;52.486;13.374;2024-03-17T07:21:02;14.80;57.00
3356;DHT22;1691;52.486;13.374;2024-03-17T07:23:33;14.30;57.00
3356;DHT22;1691;52.486;13.374;2024-03-17T07:26:00;13.80;57.50
3356;DHT22;1691;52.486;13.374;2024-03-17T07:28:26;13.40;58.10
3356;DHT22;1691;52.486;13.374;2024-03-17T07:30:55;13.10;58.20
3356;DHT22;1691;52.486;13.374;2024-03-17T07:33:23;12.80;58.50
3356;DHT22;1691;52.486;13.374;2024-03-17T07:35:52;12.70;58.90
3356;DHT22;1691;52.486;13.374;2024-03-17T07:38:29;12.50;59.20
3356;DHT22;1691;52.486;13.374;2024-03-17T07:41:02;12.30;59.20
3356;DHT22;1691;52.486;13.374;2024-03-17T07:43:30;12.10;59.30
3356;DHT22;1691;52.486;13.374;2024-03-17T07:46:04;12.00;59.50
3356;DHT22;1691;52.486;13.374;2024-03-17T07:48:36;12.10;59.50
3356;DHT22;1691;52.486;13.374;2024-03-17T07:51:11;12.00;59.20
3356;DHT22;1691;52.486;13.374;2024-03-17T07:53:43;12.00;59.50
3356;DHT22;1691;52.486;13.374;2024-03-17T07:56:15;12.20;59.00
3356;DHT22;1691;52.486;13.374;2024-03-17T07:58:43;12.30;59.00
3356;DHT22;1691;52.486;13.374;2024-03-17T08:01:14;12.70;58.50
3356;DHT22;1691;52.486;13.374;2024-03-17T08:03:45;12.80;57.80
3356;DHT22;1691;52.486;13.374;2024-03-17T08:06:12;12.80;57.60
3356;DHT22;1691;52.486;13.374;2024-03-17T08:08:38;13.10;57.50
3356;DHT22;1691;52.486;13.374;2024-03-17T08:11:04;13.70;57.20
3356;DHT22;1691;52.486;13.374;2024-03-17T08:13:31;14.50;55.60
3356;DHT22;1691;52.486;13.374;2024-03-17T08:16:04;15.30;54.20
3356;DHT22;1691;52.486;13.374;2024-03-17T08:18:37;16.40;52.40
3356;DHT22;1691;52.486;13.374;2024-03-17T08:21:04;17.40;50.40
3356;DHT22;1691;52.486;13.374;2024-03-17T08:23:35;18.30;48.70
3356;DHT22;1691;52.486;13.374;2024-03-17T08:26:05;18.90;46.50
3356;DHT22;1691;52.486;13.374;2024-03-17T08:28:31;19.30;45.60
3356;DHT22;1691;52.486;13.374;2024-03-17T08:30:59;19.70;44.20
3356;DHT22;1691;52.486;13.374;2024-03-17T08:33:27;20.00;43.80
3356;DHT22;1691;52.486;13.374;2024-03-17T08:38:21;20.50;41.90
3356;DHT22;1691;52.486;13.374;2024-03-17T08:40:52;20.70;41.90
3356;DHT22;1691;52.486;13.374;2024-03-17T08:43:19;20.90;41.20
3356;DHT22;1691;52.486;13.374;2024-03-17T08:48:28;19.90;40.50
3356;DHT22;1691;52.486;13.374;2024-03-17T08:50:57;19.10;41.20
3356;DHT22;1691;52.486;13.374;2024-03-17T08:53:23;18.00;41.60
3356;DHT22;1691;52.486;13.374;2024-03-17T08:55:50;16.70;42.70
3356;DHT22;1691;52.486;13.374;2024-03-17T08:58:16;15.70;44.10
3356;DHT22;1691;52.486;13.374;2024-03-17T09:00:43;15.10;45.50
3356;DHT22;1691;52.486;13.374;2024-03-17T09:03:10;15.20;45.80
3356;DHT22;1691;52.486;13.374;2024-03-17T09:05:42;15.00;45.50
3356;DHT22;1691;52.486;13.374;2024-03-17T09:08:18;15.20;45.80
3356;DHT22;1691;52.486;13.374;2024-03-17T09:10:46;15.90;45.00
3356;DHT22;1691;52.486;13.374;2024-03-17T09:13:17;16.70;44.20
3356;DHT22;1691;52.486;13.374;2024-03-17T09:15:57;17.60;42.70
3356;DHT22;1691;52.486;13.374;2024-03-17T09:18:26;17.70;41.80
3356;DHT22;1691;52.486;13.374;2024-03-17T09:21:06;17.30;41.60
3356;DHT22;1691;52.486;13.374;2024-03-17T09:23:34;16.80;41.80
3356;DHT22;1691;52.486;13.374;2024-03-17T09:28:27;16.00;43.30
3356;DHT22;1691;52.486;13.374;2024-03-17T09:30:54;16.10;43.30
3356;DHT22;1691;52.486;13.374;2024-03-17T09:33:22;15.80;43.20
3356;DHT22;1691;52.486;13.374;2024-03-17T09:38:30;14.90;44.20
3356;DHT22;1691;52.486;13.374;2024-03-17T13:31:52;11.80;45.50
3356;DHT22;1691;52.486;13.374;2024-03-17T13:34:18;11.70;45.60
3356;DHT22;1691;52.486;13.374;2024-03-17T13:36:44;11.60;45.90
3356;DHT22;1691;52.486;13.374;2024-03-17T13:39:11;11.60;46.10
3356;DHT22;1691;52.486;13.374;2024-03-17T13:41:37;11.50;46.20
3356;DHT22;1691;52.486;13.374;2024-03-17T13:44:03;11.40;46.10
3356;DHT22;1691;52.486;13.374;2024-03-17T13:46:29;11.40;46.10
3356;DHT22;1691;52.486;13.374;2024-03-17T13:49:07;11.40;46.20
3356;DHT22;1691;52.486;13.374;2024-03-17T13:51:34;11.50;46.20
3356;DHT22;1691;52.486;13.374;2024-03-17T13:54:01;11.60;46.20
3356;DHT22;1691;52.486;13.374;2024-03-17T13:56:28;11.60;46.10
3356;DHT22;1691;52.486;13.374;2024-03-17T13:58:54;11.70;46.10
3356;DHT22;1691;52.486;13.374;2024-03-17T14:01:20;11.70;46.10
3356;DHT22;1691;52.486;13.374;2024-03-17T14:03:46;11.80;45.90
3356;DHT22;1691;52.486;13.374;2024-03-17T14:06:12;11.90;45.80
3356;DHT22;1691;52.486;13.374;2024-03-17T14:08:39;11.70;45.60
3356;DHT22;1691;52.486;13.374;2024-03-17T14:11:05;11.60;45.80
3356;DHT22;1691;52.486;13.374;2024-03-17T14:13:31;11.40;45.90
3356;DHT22;1691;52.486;13.374;2024-03-17T14:15:57;11.20;46.10
3356;DHT22;1691;52.486;13.374;2024-03-17T14:18:23;11.10;46.50
3356;DHT22;1691;52.486;13.374;2024-03-17T14:20:49;11.00;46.50
3356;DHT22;1691;52.486;13.374;2024-03-17T14:23:16;10.90;46.70
3356;DHT22;1691;52.486;13.374;2024-03-17T14:25:42;10.80;46.90
3356;DHT22;1691;52.486;13.374;2024-03-17T14:28:09;10.80;47.00
3356;DHT22;1691;52.486;13.374;2024-03-17T14:30:35;10.80;47.20
3356;DHT22;1691;52.486;13.374;2024-03-17T14:33:01;10.70;47.30
3356;DHT22;1691;52.486;13.374;2024-03-17T14:35:32;10.60;47.30
3356;DHT22;1691;52.486;13.374;2024-03-17T14:37:58;10.70;47.30
3356;DHT22;1691;52.486;13.374;2024-03-17T14:40:25;10.70;47.30
3356;DHT22;1691;52.486;13.374;2024-03-17T14:42:54;10.70;47.50
3356;DHT22;1691;52.486;13.374;2024-03-17T14:45:21;10.70;47.60
3356;DHT22;1691;52.486;13.374;2024-03-17T14:47:50;10.70;47.80
3356;DHT22;1691;52.486;13.374;2024-03-17T14:50:17;10.70;47.80
3356;DHT22;1691;52.486;13.374;2024-03-17T14:52:44;10.60;47.90
3356;DHT22;1691;52.486;13.374;2024-03-17T14:55:11;10.60;48.20
3356;DHT22;1691;52.486;13.374;2024-03-17T14:57:38;10.50;48.20
3356;DHT22;1691;52.486;13.374;2024-03-17T15:00:10;10.40;48.40
3356;DHT22;1691;52.486;13.374;2024-03-17T15:02:46;10.30;48.40
3356;DHT22;1691;52.486;13.374;2024-03-17T15:05:16;10.20;48.50
3356;DHT22;1691;52.486;13.374;2024-03-17T15:07:45;10.20;48.90
3356;DHT22;1691;52.486;13.374;2024-03-17T15:10:12;10.20;48.90
3356;DHT22;1691;52.486;13.374;2024-03-17T15:12:38;10.20;49.00
3356;DHT22;1691;52.486;13.374;2024-03-17T15:15:09;10.30;49.00
3356;DHT22;1691;52.486;13.374;2024-03-17T15:17:36;10.30;48.90
3356;DHT22;1691;52.486;13.374;2024-03-17T15:20:02;10.30;48.90
3356;DHT22;1691;52.486;13.374;2024-03-17T15:22:49;10.40;48.70
3356;DHT22;1691;52.486;13.374;2024-03-17T15:25:15;10.40;48.70
3356;DHT22;1691;52.486;13.374;2024-03-17T15:27:45;10.40;48.70
3356;DHT22;1691;52.486;13.374;2024-03-17T15:30:16;10.40;48.90
3356;DHT22;1691;52.486;13.374;2024-03-17T15:32:48;10.40;49.20
3356;DHT22;1691;52.486;13.374;2024-03-17T15:35:15;10.40;49.20
3356;DHT22;1691;52.486;13.374;2024-03-17T15:37:42;10.40;49.30
3356;DHT22;1691;52.486;13.374;2024-03-17T15:40:09;10.40;49.30
3356;DHT22;1691;52.486;13.374;2024-03-17T15:42:47;10.30;49.30
3356;DHT22;1691;52.486;13.374;2024-03-17T15:45:18;10.30;49.30
3356;DHT22;1691;52.486;13.374;2024-03-17T15:47:46;10.30;49.50
3356;DHT22;1691;52.486;13.374;2024-03-17T15:50:13;10.30;49.30
3356;DHT22;1691;52.486;13.374;2024-03-17T15:52:42;10.20;49.30
3356;DHT22;1691;52.486;13.374;2024-03-17T15:55:10;10.20;49.50
3356;DHT22;1691;52.486;13.374;2024-03-17T15:57:36;10.20;49.50
3356;DHT22;1691;52.486;13.374;2024-03-17T16:00:02;10.10;49.50
3356;DHT22;1691;52.486;13.374;2024-03-17T16:02:29;10.10;49.60
3356;DHT22;1691;52.486;13.374;2024-03-17T16:04:55;10.10;49.50
3356;DHT22;1691;52.486;13.374;2024-03-17T16:07:22;10.00;49.60
3356;DHT22;1691;52.486;13.374;2024-03-17T16:09:50;10.00;49.80
3356;DHT22;1691;52.486;13.374;2024-03-17T16:12:19;10.00;49.90
3356;DHT22;1691;52.486;13.374;2024-03-17T16:14:46;9.90;49.90
3356;DHT22;1691;52.486;13.374;2024-03-17T16:17:15;9.80;50.10
3356;DHT22;1691;52.486;13.374;2024-03-17T16:19:42;9.80;50.20
3356;DHT22;1691;52.486;13.374;2024-03-17T16:22:09;9.80;50.40
3356;DHT22;1691;52.486;13.374;2024-03-17T16:24:37;9.80;50.40
3356;DHT22;1691;52.486;13.374;2024-03-17T16:27:06;9.70;50.40
3356;DHT22;1691;52.486;13.374;2024-03-17T16:29:33;9.70;50.70
3356;DHT22;1691;52.486;13.374;2024-03-17T16:31:59;9.60;51.30
3356;DHT22;1691;52.486;13.374;2024-03-17T16:34:26;9.60;51.30
3356;DHT22;1691;52.486;13.374;2024-03-17T16:36:56;9.50;51.60
3356;DHT22;1691;52.486;13.374;2024-03-17T16:39:25;9.40;51.80
3356;DHT22;1691;52.486;13.374;2024-03-17T16:41:51;9.40;52.10
3356;DHT22;1691;52.486;13.374;2024-03-17T16:47:28;9.20;52.50
3356;DHT22;1691;52.486;13.374;2024-03-17T16:49:55;9.20;52.90
3356;DHT22;1691;52.486;13.374;2024-03-17T16:52:24;9.10;53.00
3356;DHT22;1691;52.486;13.374;2024-03-17T16:54:52;9.00;53.20
3356;DHT22;1691;52.486;13.374;2024-03-17T16:57:19;8.90;53.50
3356;DHT22;1691;52.486;13.374;2024-03-17T16:59:45;8.80;53.80
3356;DHT22;1691;52.486;13.374;2024-03-17T17:02:17;8.70;53.90
3356;DHT22;1691;52.486;13.374;2024-03-17T17:04:44;8.60;54.20
3356;DHT22;1691;52.486;13.374;2024-03-17T17:07:12;8.50;54.40
3356;DHT22;1691;52.486;13.374;2024-03-17T17:09:39;8.40;54.90
3356;DHT22;1691;52.486;13.374;2024-03-17T17:12:06;8.30;55.20
3356;DHT22;1691;52.486;13.374;2024-03-17T17:14:32;8.30;55.50
3356;DHT22;1691;52.486;13.374;2024-03-17T17:17:10;8.20;55.80
3356;DHT22;1691;52.486;13.374;2024-03-17T17:19:40;8.20;55.80
3356;DHT22;1691;52.486;13.374;2024-03-17T17:22:07;8.10;56.10
3356;DHT22;1691;52.486;13.374;2024-03-17T17:24:36;8.10;56.20
3356;DHT22;1691;52.486;13.374;2024-03-17T17:27:06;8.00;56.70
3356;DHT22;1691;52.486;13.374;2024-03-17T17:29:38;7.90;57.00
3356;DHT22;1691;52.486;13.374;2024-03-17T17:32:06;7.90;57.20
3356;DHT22;1691;52.486;13.374;2024-03-17T17:34:34;7.90;57.30
3356;DHT22;1691;52.486;13.374;2024-03-17T17:37:01;7.80;57.30
3356;DHT22;1691;52.486;13.374;2024-03-17T17:39:27;7.80;57.60
3356;DHT22;1691;52.486;13.374;2024-03-17T17:41:53;7.70;57.80
3356;DHT22;1691;52.486;13.374;2024-03-17T17:44:19;7.70;57.80
3356;DHT22;1691;52.486;13.374;2024-03-17T17:46:46;7.60;58.10
3356;DHT22;1691;52.486;13.374;2024-03-17T17:49:11;7.60;58.10
3356;DHT22;1691;52.486;13.374;2024-03-17T17:51:37;7.50;58.20
3356;DHT22;1691;52.486;13.374;2024-03-17T17:54:05;7.50;58.40
3356;DHT22;1691;52.486;13.374;2024-03-17T17:56:31;7.40;58.40
3356;DHT22;1691;52.486;13.374;2024-03-17T17:58:57;7.40;58.50
3356;DHT22;1691;52.486;13.374;2024-03-17T18:01:23;7.40;58.50
3356;DHT22;1691;52.486;13.374;2024-03-17T18:03:50;7.40;58.70
3356;DHT22;1691;52.486;13.374;2024-03-17T18:06:18;7.30;58.90
3356;DHT22;1691;52.486;13.374;2024-03-17T18:08:45;7.30;58.90
3356;DHT22;1691;52.486;13.374;2024-03-17T18:11:20;7.20;59.00
3356;DHT22;1691;52.486;13.374;2024-03-17T18:13:47;7.20;59.00
3356;DHT22;1691;52.486;13.374;2024-03-17T18:16:14;7.10;59.00
3356;DHT22;1691;52.486;13.374;2024-03-17T18:18:40;7.10;59.30
3356;DHT22;1691;52.486;13.374;2024-03-17T18:21:10;7.10;59.30
3356;DHT22;1691;52.486;13.374;2024-03-17T18:23:41;7.10;59.50
3356;DHT22;1691;52.486;13.374;2024-03-17T18:26:12;7.00;59.50
3356;DHT22;1691;52.486;13.374;2024-03-17T18:28:40;7.00;59.60
3356;DHT22;1691;52.486;13.374;2024-03-17T18:31:08;7.00;59.60
3356;DHT22;1691;52.486;13.374;2024-03-17T18:33:36;6.90;59.80
3356;DHT22;1691;52.486;13.374;2024-03-17T18:36:04;6.90;59.90
3356;DHT22;1691;52.486;13.374;2024-03-17T18:38:32;6.90;59.90
3356;DHT22;1691;52.486;13.374;2024-03-17T18:41:04;6.90;59.90
3356;DHT22;1691;52.486;13.374;2024-03-17T18:43:33;6.90;60.10
3356;DHT22;1691;52.486;13.374;2024-03-17T18:46:14;6.90;59.90
3356;DHT22;1691;52.486;13.374;2024-03-17T18:48:42;6.90;60.10
3356;DHT22;1691;52.486;13.374;2024-03-17T18:51:09;6.80;60.10
3356;DHT22;1691;52.486;13.374;2024-03-17T18:53:39;6.80;60.10
3356;DHT22;1691;52.486;13.374;2024-03-17T18:56:06;6.80;60.30
3356;DHT22;1691;52.486;13.374;2024-03-17T18:58:32;6.80;60.80
3356;DHT22;1691;52.486;13.374;2024-03-17T19:01:03;6.70;61.20
3356;DHT22;1691;52.486;13.374;2024-03-17T19:03:33;6.70;61.40
3356;DHT22;1691;52.486;13.374;2024-03-17T19:06:11;6.60;61.60
3356;DHT22;1691;52.486;13.374;2024-03-17T19:08:41;6.60;62.00
3356;DHT22;1691;52.486;13.374;2024-03-17T19:11:09;6.50;62.10
3356;DHT22;1691;52.486;13.374;2024-03-17T19:13:38;6.40;62.50
3356;DHT22;1691;52.486;13.374;2024-03-17T19:16:07;6.40;62.90
3356;DHT22;1691;52.486;13.374;2024-03-17T19:18:39;6.30;63.30
3356;DHT22;1691;52.486;13.374;2024-03-17T19:23:35;6.20;63.80
3356;DHT22;1691;52.486;13.374;2024-03-17T19:26:07;6.20;64.00
3356;DHT22;1691;52.486;13.374;2024-03-17T19:28:47;6.10;64.60
3356;DHT22;1691;52.486;13.374;2024-03-17T19:31:13;6.10;64.90
3356;DHT22;1691;52.486;13.374;2024-03-17T19:33:39;6.00;65.30
3356;DHT22;1691;52.486;13.374;2024-03-17T19:36:06;6.00;65.90
3356;DHT22;1691;52.486;13.374;2024-03-17T19:38:35;5.90;66.20
3356;DHT22;1691;52.486;13.374;2024-03-17T19:41:03;5.90;66.60
3356;DHT22;1691;52.486;13.374;2024-03-17T19:43:39;5.80;67.00
3356;DHT22;1691;52.486;13.374;2024-03-17T19:46:11;5.80;67.40
3356;DHT22;1691;52.486;13.374;2024-03-17T19:48:52;5.70;67.90
3356;DHT22;1691;52.486;13.374;2024-03-17T19:51:21;5.60;68.10
3356;DHT22;1691;52.486;13.374;2024-03-17T19:53:49;5.60;68.30
3356;DHT22;1691;52.486;13.374;2024-03-17T19:56:16;5.60;68.50
3356;DHT22;1691;52.486;13.374;2024-03-17T19:58:43;5.50;68.50
3356;DHT22;1691;52.486;13.374;2024-03-17T20:01:09;5.40;68.80
3356;DHT22;1691;52.486;13.374;2024-03-17T20:03:38;5.40;69.00
3356;DHT22;1691;52.486;13.374;2024-03-17T20:06:06;5.30;69.40
3356;DHT22;1691;52.486;13.374;2024-03-17T20:08:34;5.30;69.40